createdAt,value
2022-11-22T00:03:52.059Z,23.2
2022-11-22T00:09:10.238Z,23.2
2022-11-22T00:14:29.000Z,23.2
2022-11-22T00:19:47.797Z,23.2
2022-11-22T00:25:06.533Z,23.2
2022-11-22T00:30:25.051Z,23.2
2022-11-22T00:35:43.856Z,23.2
2022-11-22T00:41:02.139Z,23.3
2022-11-22T00:46:20.895Z,23.3
2022-11-22T00:51:39.127Z,23.3
2022-11-22T00:56:57.313Z,23.3
2022-11-22T01:02:15.240Z,23.3
2022-11-22T01:07:33.949Z,23.3
2022-11-22T01:12:51.971Z,23.3
2022-11-22T01:18:10.465Z,23.3
2022-11-22T01:23:28.698Z,23.3
2022-11-22T01:28:47.144Z,23.3
2022-11-22T01:34:05.680Z,23.3
2022-11-22T01:39:23.913Z,23.3
2022-11-22T01:44:42.369Z,23.3
2022-11-22T01:50:00.875Z,23.3
2022-11-22T01:55:19.107Z,23.3
2022-11-22T02:00:37.280Z,23.3
2022-11-22T02:05:55.720Z,23.3
2022-11-22T02:11:14.226Z,23.3
2022-11-22T02:16:32.419Z,23.3
2022-11-22T02:21:50.957Z,23.3
2022-11-22T02:27:09.174Z,23.3
2022-11-22T02:32:27.919Z,23.3
2022-11-22T02:37:46.402Z,23.3
2022-11-22T02:43:05.148Z,23.3
2022-11-22T02:48:23.887Z,23.3
2022-11-22T02:53:42.085Z,23.3
2022-11-22T02:59:00.596Z,23.3
2022-11-22T03:04:19.055Z,23.3
2022-11-22T03:09:37.826Z,23.3
2022-11-22T03:14:56.643Z,23.3
2022-11-22T03:20:15.102Z,23.3
2022-11-22T03:25:33.854Z,23.3
2022-11-22T03:30:52.655Z,23.3
2022-11-22T03:36:11.149Z,23.3
2022-11-22T03:41:29.660Z,23.3
2022-11-22T03:46:47.884Z,23.3
2022-11-22T03:52:06.627Z,23.3
2022-11-22T03:57:25.397Z,23.3
2022-11-22T04:02:44.190Z,23.3
2022-11-22T04:08:02.928Z,23.3
2022-11-22T04:13:21.153Z,23.3
2022-11-22T04:18:39.674Z,23.4
2022-11-22T04:23:57.839Z,23.4
2022-11-22T04:29:16.060Z,23.4
2022-11-22T04:34:34.304Z,23.4
2022-11-22T04:39:52.470Z,23.4
2022-11-22T04:45:10.982Z,23.4
2022-11-22T04:50:29.501Z,23.4
2022-11-22T04:55:47.942Z,23.4
2022-11-22T05:01:06.915Z,23.4
2022-11-22T05:06:25.401Z,23.4
2022-11-22T05:11:43.586Z,23.4
2022-11-22T05:17:02.367Z,23.4
2022-11-22T05:22:20.882Z,23.4
2022-11-22T05:27:39.334Z,23.4
2022-11-22T05:32:57.275Z,23.4
2022-11-22T05:38:15.777Z,23.1
2022-11-22T05:43:34.250Z,22.7
2022-11-22T05:48:52.735Z,22.1
2022-11-22T05:54:11.271Z,22.5
2022-11-22T05:59:30.012Z,22.7
2022-11-22T06:04:48.739Z,22.8
2022-11-22T06:10:07.257Z,22.8
2022-11-22T06:15:25.400Z,22.9
2022-11-22T06:20:43.862Z,23
2022-11-22T06:26:02.378Z,23
2022-11-22T06:31:05.236Z,23.1
2022-11-22T06:36:24.006Z,23.1
2022-11-22T06:41:42.508Z,23.2
2022-11-22T06:47:01.262Z,23.2
2022-11-22T06:52:19.457Z,23.3
2022-11-22T06:57:37.988Z,23.3
2022-11-22T07:02:56.163Z,23.4
2022-11-22T07:08:14.963Z,23.7
2022-11-22T07:13:33.438Z,23.7
2022-11-22T07:18:51.631Z,23.8
2022-11-22T07:24:10.157Z,23.8
2022-11-22T07:29:29.712Z,23.9
2022-11-22T07:34:48.822Z,23.9
2022-11-22T07:40:07.035Z,23.9
2022-11-22T07:45:25.559Z,23.9
2022-11-22T07:50:44.025Z,24
2022-11-22T07:56:02.365Z,24
2022-11-22T08:01:21.059Z,24
2022-11-22T08:06:39.273Z,24
2022-11-22T08:11:57.799Z,24
2022-11-22T08:17:16.700Z,24
2022-11-22T08:22:34.981Z,24
2022-11-22T08:27:53.274Z,24
2022-11-22T08:33:11.886Z,24
2022-11-22T08:38:30.081Z,23.9
2022-11-22T08:43:48.582Z,23.9
2022-11-22T08:49:07.189Z,23.9
2022-11-22T08:54:25.923Z,23.9
2022-11-22T08:59:44.814Z,23.8
2022-11-22T09:05:03.707Z,23.8
2022-11-22T09:10:22.117Z,23.8
2022-11-22T09:15:40.602Z,23.8
2022-11-22T09:20:59.222Z,23.7
2022-11-22T09:26:17.254Z,23.7
2022-11-22T09:31:35.704Z,23.7
2022-11-22T09:36:54.490Z,23.7
2022-11-22T09:42:13.238Z,23.6
2022-11-22T09:47:31.605Z,23.6
2022-11-22T09:52:49.937Z,23.6
2022-11-22T09:58:08.172Z,23.6
2022-11-22T10:03:26.927Z,23.6
2022-11-22T10:08:45.522Z,23.6
2022-11-22T10:14:03.793Z,23.6
2022-11-22T10:19:21.996Z,23.6
2022-11-22T10:24:40.505Z,23.5
2022-11-22T10:29:58.706Z,23.5
2022-11-22T10:35:17.088Z,23.5
2022-11-22T10:40:35.416Z,23.5
2022-11-22T10:45:54.233Z,23.5
2022-11-22T10:51:12.671Z,23.5
2022-11-22T10:56:31.293Z,23.5
2022-11-22T11:01:49.763Z,23.5
2022-11-22T11:07:13.131Z,23.5
2022-11-22T11:12:31.830Z,23.5
2022-11-22T11:17:50.106Z,23.5
2022-11-22T11:23:16.878Z,23.5
2022-11-22T11:28:35.792Z,23.4
2022-11-22T11:33:54.274Z,23.4
2022-11-22T11:39:13.122Z,23.4
2022-11-22T11:44:32.379Z,23.4
2022-11-22T11:49:51.670Z,23.4
2022-11-22T11:55:10.540Z,23.4
2022-11-22T12:00:29.430Z,23.4
2022-11-22T12:05:47.649Z,23.4
2022-11-22T12:11:06.457Z,23.4
2022-11-22T12:16:25.347Z,23.4
2022-11-22T12:21:43.864Z,23.3
2022-11-22T12:27:02.594Z,23.3
2022-11-22T12:32:21.224Z,23.3
2022-11-22T12:37:39.491Z,23.3
2022-11-22T12:42:58.193Z,23.3
2022-11-22T12:48:16.525Z,23.3
2022-11-22T12:53:34.497Z,23.3
2022-11-22T12:58:52.985Z,23.3
2022-11-22T13:04:11.590Z,23.3
2022-11-22T13:09:30.039Z,23.3
2022-11-22T13:14:48.890Z,23.3
2022-11-22T13:20:07.212Z,23.3
2022-11-22T13:25:25.465Z,23.3
2022-11-22T13:30:43.685Z,23.3
2022-11-22T13:36:02.005Z,23.3
2022-11-22T13:41:20.537Z,23.3
2022-11-22T13:46:39.658Z,23.3
2022-11-22T13:51:58.557Z,23.3
2022-11-22T13:57:16.625Z,23.3
2022-11-22T14:02:35.092Z,23.3
2022-11-22T14:07:54.016Z,23.2
2022-11-22T14:13:13.106Z,23.2
2022-11-22T14:18:31.468Z,23.1
2022-11-22T14:23:49.801Z,23.2
2022-11-22T14:29:08.273Z,23.2
2022-11-22T14:34:26.709Z,23.2
2022-11-22T14:39:45.050Z,23.2
2022-11-22T14:45:03.292Z,23.2
2022-11-22T14:50:22.108Z,23.2
2022-11-22T14:55:40.714Z,23.2
2022-11-22T15:00:59.278Z,23.2
2022-11-22T15:09:44.903Z,23.2
2022-11-22T16:02:25.776Z,23.3
2022-11-22T16:07:44.011Z,23.2
2022-11-22T16:13:02.208Z,23.2
2022-11-22T16:18:20.943Z,23.2
2022-11-22T16:23:39.699Z,23.2
2022-11-22T16:28:58.606Z,23.2
2022-11-22T16:34:17.365Z,23.2
2022-11-22T16:39:35.292Z,23.2
2022-11-22T16:44:53.895Z,23.2
2022-11-22T16:50:16.581Z,23.2
2022-11-22T16:55:35.084Z,23.2
2022-11-22T17:00:53.583Z,23.1
2022-11-22T17:05:56.803Z,23
2022-11-22T17:11:14.696Z,23
2022-11-22T17:16:33.326Z,23.1
2022-11-22T17:21:38.625Z,23
2022-11-22T17:26:56.808Z,23.1
2022-11-22T17:32:15.129Z,23.1
2022-11-22T17:37:33.871Z,23.1
2022-11-22T17:42:52.075Z,23.1
2022-11-22T17:48:10.594Z,23.1
2022-11-22T17:53:29.212Z,23.1
2022-11-22T17:58:47.959Z,23.1
2022-11-22T18:04:06.855Z,23.2
2022-11-22T18:09:25.307Z,23.2
2022-11-22T18:14:44.067Z,23.2
2022-11-22T18:20:02.694Z,23.2
2022-11-22T18:25:21.071Z,23.3
2022-11-22T18:30:39.574Z,23.2
2022-11-22T18:35:58.424Z,23.3
2022-11-22T18:41:17.129Z,23.3
2022-11-22T18:46:35.581Z,23.3
2022-11-22T18:51:53.925Z,23.3
2022-11-22T18:57:12.226Z,23.3
2022-11-22T19:02:30.707Z,23.3
2022-11-22T19:07:49.331Z,23.3
2022-11-22T19:13:07.906Z,23.3
2022-11-22T19:18:27.570Z,23.3
2022-11-22T19:23:52.062Z,23.3
2022-11-22T19:28:54.948Z,23.3
2022-11-22T19:34:13.390Z,23.3
2022-11-22T19:39:37.517Z,23.3
2022-11-22T19:44:56.037Z,23.3
2022-11-22T19:50:14.799Z,23.3
2022-11-22T19:55:33.067Z,23.3
2022-11-22T20:00:51.433Z,23.3
2022-11-22T20:06:10.270Z,23.4
2022-11-22T20:11:28.587Z,23.4
2022-11-22T20:16:47.190Z,23.4
2022-11-22T20:22:05.392Z,23.4
2022-11-22T20:27:25.253Z,23.5
2022-11-22T20:32:43.606Z,23.5
2022-11-22T20:38:01.797Z,23.5
2022-11-22T20:43:19.852Z,23.5
2022-11-22T20:48:38.251Z,23.5
2022-11-22T20:53:56.985Z,23.5
2022-11-22T20:59:15.304Z,23.5
2022-11-22T21:04:34.254Z,23.5
2022-11-22T21:09:53.095Z,23.5
2022-11-22T21:15:11.750Z,23.5
2022-11-22T21:20:29.938Z,23.5
2022-11-22T21:25:47.863Z,23.5
2022-11-22T21:31:06.483Z,23.5
2022-11-22T21:36:25.159Z,23.4
2022-11-22T21:41:43.650Z,23.4
2022-11-22T21:47:02.301Z,23.4
2022-11-22T21:52:20.487Z,23.4
2022-11-22T21:57:38.982Z,23.4
2022-11-22T22:02:57.491Z,23.4
2022-11-22T22:08:16.254Z,23.4
2022-11-22T22:13:34.499Z,23.4
2022-11-22T22:18:53.273Z,23.4
2022-11-22T22:24:11.899Z,23.4
2022-11-22T22:29:31.453Z,23.4
2022-11-22T22:34:50.589Z,23.4
2022-11-22T22:40:09.346Z,23.4
2022-11-22T22:45:27.831Z,23.4
2022-11-22T22:50:46.452Z,23.4
2022-11-22T22:56:05.241Z,23.4
2022-11-22T23:01:23.153Z,23.4
2022-11-22T23:06:42.041Z,23.4
2022-11-22T23:12:00.653Z,23.4
2022-11-22T23:17:19.131Z,23.4
2022-11-22T23:22:37.466Z,23.4
2022-11-22T23:27:56.354Z,23.4
2022-11-22T23:33:14.831Z,23.4
2022-11-22T23:38:33.429Z,23.4
2022-11-22T23:43:51.831Z,23.4
2022-11-22T23:49:10.593Z,23.4
2022-11-22T23:54:29.207Z,23.4
2022-11-22T23:59:47.467Z,23.4
